Sapporo, Japan
Current Conditions -  °F | °C
As of 6:00 PM on Thursday 23 Oct 2014 (Local Time) from RJCC Reporting Station
Few Clouds Few Clouds  
Wind Chill: 36°   Ceiling: Unl
Heat Index: 41°   Visibility: 6mi
Dew Point: 32°   Wind: 7mph
Humidity: 70%   Direction: 140°SE
Pressure: 30.12"   Gusts: NA
Location:  43.07°N, 141.35°E
Report Text: RJCC 230900Z 14006KT 9999 FEW050 05/00 Q1020
Loading
Personal Weather Stations






























Interactive Weather Map
Tropical Storm Tracking
New forecast layout! Learn more

10-Day Weather Forecast

Advertisements
Track Severe Weather on mobile